createdAt,value
2023-03-07T00:02:14.681Z,-0.22
2023-03-07T00:04:45.539Z,-0.14
2023-03-07T00:07:12.944Z,-0.03
2023-03-07T00:09:39.526Z,-0.02
2023-03-07T00:12:08.001Z,-0.05
2023-03-07T00:14:35.758Z,-0.08
2023-03-07T00:17:02.668Z,-0.11
2023-03-07T00:19:29.292Z,-0.15
2023-03-07T00:21:56.086Z,-0.09
2023-03-07T00:24:23.590Z,-0.02
2023-03-07T00:26:50.584Z,-0.05
2023-03-07T00:29:17.531Z,-0.09
2023-03-07T00:32:04.248Z,-0.13
2023-03-07T00:34:32.450Z,-0.15
2023-03-07T00:36:59.073Z,-0.16
2023-03-07T00:39:26.973Z,-0.07
2023-03-07T00:41:54.361Z,-0.04
2023-03-07T00:44:22.025Z,-0.08
2023-03-07T00:46:49.204Z,-0.13
2023-03-07T00:49:16.239Z,-0.20
2023-03-07T00:51:43.037Z,-0.26
2023-03-07T00:54:10.056Z,-0.19
2023-03-07T00:56:36.907Z,-0.13
2023-03-07T00:59:03.977Z,-0.15
2023-03-07T01:01:31.156Z,-0.21
2023-03-07T01:03:57.938Z,-0.24
2023-03-07T01:06:28.342Z,-0.27
2023-03-07T01:08:56.806Z,-0.17
2023-03-07T01:11:26.135Z,-0.15
2023-03-07T01:13:59.416Z,-0.21
2023-03-07T01:16:29.724Z,-0.26
2023-03-07T01:18:58.684Z,-0.32
2023-03-07T01:21:37.130Z,-0.37
2023-03-07T01:24:05.238Z,-0.28
2023-03-07T01:26:34.475Z,-0.30
2023-03-07T01:29:03.299Z,-0.35
2023-03-07T01:31:33.560Z,-0.40
2023-03-07T01:34:02.469Z,-0.44
2023-03-07T01:36:33.434Z,-0.40
2023-03-07T01:39:14.746Z,-0.32
2023-03-07T01:41:55.434Z,-0.34
2023-03-07T01:44:26.206Z,-0.39
2023-03-07T01:46:59.881Z,-0.42
2023-03-07T01:49:36.934Z,-0.44
2023-03-07T01:52:14.308Z,-0.40
2023-03-07T01:57:33.802Z,-0.25
2023-03-07T02:00:06.413Z,-0.27
2023-03-07T02:02:43.627Z,-0.27
2023-03-07T02:05:27.564Z,-0.29
2023-03-07T02:07:54.547Z,-0.23
2023-03-07T02:10:24.003Z,-0.14
2023-03-07T02:12:51.723Z,-0.17
2023-03-07T02:15:21.628Z,-0.21
2023-03-07T02:17:49.397Z,-0.24
2023-03-07T02:20:52.937Z,-0.27
2023-03-07T02:23:41.513Z,-0.15
2023-03-07T02:26:26.276Z,-0.10
2023-03-07T02:28:53.222Z,-0.12
2023-03-07T02:31:20.475Z,-0.16
2023-03-07T02:33:49.148Z,-0.19
2023-03-07T02:36:18.528Z,-0.22
2023-03-07T02:38:52.327Z,-0.18
2023-03-07T02:41:27.106Z,-0.07
2023-03-07T02:43:53.822Z,-0.04
2023-03-07T02:46:20.773Z,-0.06
2023-03-07T02:48:48.364Z,-0.07
2023-03-07T02:51:15.694Z,-0.09
2023-03-07T02:53:43.549Z,-0.11
2023-03-07T02:56:10.821Z,-0.12
2023-03-07T02:58:37.730Z,-0.03
2023-03-07T03:01:04.516Z,0.03
2023-03-07T03:03:31.378Z,-0.00
2023-03-07T03:05:59.402Z,-0.04
2023-03-07T03:08:26.290Z,-0.07
2023-03-07T03:10:53.762Z,-0.10
2023-03-07T03:13:21.433Z,-0.11
2023-03-07T03:15:48.228Z,-0.02
2023-03-07T03:18:16.964Z,0.04
2023-03-07T03:20:44.283Z,0.03
2023-03-07T03:23:11.680Z,-0.00
2023-03-07T03:25:40.202Z,-0.02
2023-03-07T03:28:08.094Z,-0.04
2023-03-07T03:30:35.738Z,-0.04
2023-03-07T03:33:03.917Z,0.08
2023-03-07T03:35:32.903Z,0.17
2023-03-07T03:38:00.028Z,0.18
2023-03-07T03:40:31.420Z,0.17
2023-03-07T03:42:58.605Z,0.15
2023-03-07T03:45:25.636Z,0.14
2023-03-07T03:47:52.485Z,0.13
2023-03-07T03:50:19.166Z,0.13
2023-03-07T03:52:46.760Z,0.25
2023-03-07T03:55:13.740Z,0.31
2023-03-07T03:57:42.756Z,0.32
2023-03-07T04:00:13.670Z,0.30
2023-03-07T04:02:40.573Z,0.28
2023-03-07T04:05:08.912Z,0.26
2023-03-07T04:07:41.033Z,0.24
2023-03-07T04:10:08.703Z,0.22
2023-03-07T04:12:37.564Z,0.32
2023-03-07T04:15:06.792Z,0.37
2023-03-07T04:17:40.158Z,0.33
2023-03-07T04:20:13.648Z,0.28
2023-03-07T04:22:40.330Z,0.26
2023-03-07T04:25:07.256Z,0.23
2023-03-07T04:27:34.826Z,0.24
2023-03-07T04:30:05.101Z,0.37
2023-03-07T04:32:33.608Z,0.42
2023-03-07T04:35:00.206Z,0.38
2023-03-07T04:37:27.111Z,0.37
2023-03-07T04:39:54.028Z,0.35
2023-03-07T04:42:20.627Z,0.35
2023-03-07T04:44:47.423Z,0.35
2023-03-07T04:47:15.154Z,0.39
2023-03-07T04:49:43.566Z,0.53
2023-03-07T04:52:10.208Z,0.58
2023-03-07T04:54:36.916Z,0.59
2023-03-07T04:57:03.894Z,0.59
2023-03-07T04:59:38.460Z,0.58
2023-03-07T05:02:06.874Z,0.57
2023-03-07T05:04:33.704Z,0.56
2023-03-07T05:07:02.402Z,0.56
2023-03-07T05:09:30.032Z,0.60
2023-03-07T05:11:58.774Z,0.75
2023-03-07T05:14:25.930Z,0.77
2023-03-07T05:16:52.861Z,0.77
2023-03-07T05:19:19.515Z,0.79
2023-03-07T05:22:06.954Z,0.78
2023-03-07T05:24:38.668Z,0.78
2023-03-07T05:27:06.261Z,0.79
2023-03-07T05:29:32.934Z,0.79
2023-03-07T05:32:00.940Z,0.80
2023-03-07T05:34:27.704Z,0.91
2023-03-07T05:36:57.609Z,1.01
2023-03-07T05:39:27.147Z,0.98
2023-03-07T05:41:54.518Z,0.95
2023-03-07T05:44:22.493Z,0.94
2023-03-07T05:46:49.606Z,0.93
2023-03-07T05:49:20.046Z,0.91
2023-03-07T05:51:46.969Z,0.93
2023-03-07T05:54:13.705Z,0.99
2023-03-07T05:56:40.499Z,0.91
2023-03-07T05:59:08.967Z,0.77
2023-03-07T06:01:41.285Z,0.70
2023-03-07T06:04:08.308Z,0.64
2023-03-07T06:06:35.378Z,0.51
2023-03-07T06:09:03.863Z,0.36
2023-03-07T06:11:31.859Z,0.34
2023-03-07T06:13:58.901Z,0.33
2023-03-07T06:16:26.010Z,0.27
2023-03-07T06:18:54.873Z,0.16
2023-03-07T06:21:21.769Z,0.08
2023-03-07T06:23:48.460Z,0.10
2023-03-07T06:26:19.011Z,0.12
2023-03-07T06:28:53.601Z,0.07
2023-03-07T06:31:20.690Z,0.10
2023-03-07T06:33:47.744Z,0.18
2023-03-07T06:36:16.781Z,0.15
2023-03-07T06:38:45.470Z,0.14
2023-03-07T06:41:12.536Z,0.22
2023-03-07T06:43:39.702Z,0.19
2023-03-07T06:46:06.668Z,0.19
2023-03-07T06:48:36.746Z,0.26
2023-03-07T06:51:09.019Z,0.26
2023-03-07T06:53:36.427Z,0.20
2023-03-07T06:56:03.803Z,0.26
2023-03-07T06:58:31.179Z,0.27
2023-03-07T07:00:58.592Z,0.24
2023-03-07T07:03:25.893Z,0.30
2023-03-07T07:05:52.523Z,0.33
2023-03-07T07:08:19.347Z,0.28
2023-03-07T07:10:47.229Z,0.33
2023-03-07T07:13:15.500Z,0.37
2023-03-07T07:15:44.921Z,0.33
2023-03-07T07:18:13.518Z,0.40
2023-03-07T07:20:42.731Z,0.44
2023-03-07T07:23:10.289Z,0.40
2023-03-07T07:25:40.081Z,0.47
2023-03-07T07:28:07.079Z,0.53
2023-03-07T07:30:33.936Z,0.54
2023-03-07T07:33:09.973Z,0.49
2023-03-07T07:35:38.678Z,0.52
2023-03-07T07:38:08.021Z,0.57
2023-03-07T07:40:35.487Z,0.52
2023-03-07T07:43:02.185Z,0.54
2023-03-07T07:45:42.847Z,0.59
2023-03-07T07:48:10.469Z,0.56
2023-03-07T07:50:37.976Z,0.59
2023-03-07T07:53:05.631Z,0.63
2023-03-07T07:55:32.401Z,0.67
2023-03-07T07:57:59.287Z,0.62
2023-03-07T08:00:26.336Z,0.65
2023-03-07T08:02:52.984Z,0.71
2023-03-07T08:05:24.127Z,0.72
2023-03-07T08:07:50.936Z,0.67
2023-03-07T08:10:17.787Z,0.74
2023-03-07T08:12:50.693Z,0.81
2023-03-07T08:15:20.890Z,0.80
2023-03-07T08:17:52.572Z,0.87
2023-03-07T08:20:21.789Z,1.01
2023-03-07T08:22:49.959Z,1.09
2023-03-07T08:25:22.233Z,1.10
2023-03-07T08:27:52.986Z,1.12
2023-03-07T08:30:26.466Z,1.19
2023-03-07T08:32:53.902Z,1.25
2023-03-07T08:35:21.138Z,1.29
2023-03-07T08:37:48.644Z,1.35
2023-03-07T08:40:15.871Z,1.47
2023-03-07T08:42:43.399Z,1.48
2023-03-07T08:45:11.961Z,1.41
2023-03-07T08:47:39.018Z,1.45
2023-03-07T08:50:06.525Z,1.49
2023-03-07T08:52:34.257Z,1.47
2023-03-07T08:55:01.068Z,1.44
2023-03-07T08:57:32.916Z,1.46
2023-03-07T09:00:01.490Z,1.58
2023-03-07T09:02:28.579Z,1.64
2023-03-07T09:04:55.186Z,1.60
2023-03-07T09:07:21.907Z,1.60
2023-03-07T09:09:49.961Z,1.68
2023-03-07T09:12:17.367Z,1.80
2023-03-07T09:14:45.393Z,1.85
2023-03-07T09:17:12.092Z,2.00
2023-03-07T09:19:39.461Z,2.29
2023-03-07T09:22:06.401Z,2.53
2023-03-07T09:24:34.097Z,2.78
2023-03-07T09:27:05.052Z,3.10
2023-03-07T09:29:39.862Z,3.32
2023-03-07T09:32:11.305Z,3.66
2023-03-07T09:34:39.892Z,4.04
2023-03-07T09:37:07.748Z,4.30
2023-03-07T09:39:37.977Z,4.26
2023-03-07T09:42:34.166Z,4.11
2023-03-07T09:45:22.663Z,3.81
2023-03-07T09:48:16.610Z,3.55
2023-03-07T09:50:53.952Z,3.38
2023-03-07T09:53:31.476Z,3.09
2023-03-07T09:55:58.949Z,2.84
2023-03-07T09:58:26.030Z,2.75
2023-03-07T10:00:56.683Z,2.85
2023-03-07T10:03:43.316Z,3.05
2023-03-07T10:06:16.066Z,3.60
2023-03-07T10:08:47.000Z,4.37
2023-03-07T10:11:22.542Z,5.03
2023-03-07T10:13:58.288Z,5.60
2023-03-07T10:16:36.089Z,5.98
2023-03-07T10:19:27.084Z,6.11
2023-03-07T10:22:16.532Z,5.95
2023-03-07T10:24:59.014Z,5.57
2023-03-07T10:27:26.910Z,5.29
2023-03-07T10:29:55.614Z,5.24
2023-03-07T10:32:46.029Z,5.43
2023-03-07T10:35:20.066Z,5.88
2023-03-07T10:37:51.584Z,6.30
2023-03-07T10:40:42.458Z,6.79
2023-03-07T10:43:24.897Z,7.37
2023-03-07T10:45:59.408Z,7.66
2023-03-07T10:48:26.553Z,7.63
2023-03-07T10:51:00.967Z,7.49
2023-03-07T10:53:31.772Z,7.47
2023-03-07T10:56:08.741Z,7.31
2023-03-07T10:58:36.078Z,7.07
2023-03-07T11:01:05.711Z,6.90
2023-03-07T11:03:51.436Z,6.70
2023-03-07T11:06:27.072Z,6.38
2023-03-07T11:08:55.617Z,6.09
2023-03-07T11:11:29.983Z,5.85
2023-03-07T11:14:09.546Z,5.58
2023-03-07T11:16:53.497Z,5.40
2023-03-07T11:19:44.660Z,5.32
2023-03-07T11:22:21.727Z,5.29
2023-03-07T11:24:51.830Z,5.25
2023-03-07T11:27:25.629Z,5.19
2023-03-07T11:30:05.800Z,5.06
2023-03-07T11:32:34.143Z,5.11
2023-03-07T11:35:06.518Z,5.63
2023-03-07T11:37:38.437Z,6.20
2023-03-07T11:41:05.237Z,6.53
2023-03-07T11:43:48.167Z,6.39
2023-03-07T11:46:27.070Z,6.12
2023-03-07T11:49:22.590Z,5.93
2023-03-07T11:52:05.438Z,5.88
2023-03-07T11:54:39.415Z,6.29
2023-03-07T11:57:21.634Z,6.70
2023-03-07T12:00:11.118Z,6.84
2023-03-07T12:02:58.199Z,6.75
2023-03-07T12:05:32.648Z,6.61
2023-03-07T12:08:06.667Z,6.45
2023-03-07T12:10:57.204Z,6.30
2023-03-07T12:14:02.830Z,6.26
2023-03-07T12:16:47.404Z,6.49
2023-03-07T12:19:51.298Z,6.78
2023-03-07T12:22:28.526Z,6.91
2023-03-07T12:25:03.438Z,6.79
2023-03-07T12:27:34.127Z,6.57
2023-03-07T12:30:04.481Z,6.37
2023-03-07T12:32:33.061Z,6.16
2023-03-07T12:35:05.442Z,6.00
2023-03-07T12:38:08.393Z,5.88
2023-03-07T12:40:47.377Z,5.75
2023-03-07T12:43:32.669Z,5.62
2023-03-07T12:46:19.967Z,5.49
2023-03-07T12:48:59.963Z,5.45
2023-03-07T12:51:36.418Z,5.39
2023-03-07T12:54:08.348Z,5.27
2023-03-07T12:56:54.150Z,5.17
2023-03-07T12:59:21.751Z,5.14
2023-03-07T13:02:01.640Z,5.11
2023-03-07T13:04:33.978Z,5.06
2023-03-07T13:07:26.778Z,5.07
2023-03-07T13:09:57.222Z,5.22
2023-03-07T13:12:28.975Z,5.39
2023-03-07T13:14:57.135Z,5.50
2023-03-07T13:17:33.164Z,5.52
2023-03-07T13:20:20.628Z,5.52
2023-03-07T13:22:47.909Z,5.42
2023-03-07T13:25:27.691Z,5.32
2023-03-07T13:27:58.516Z,5.22
2023-03-07T13:30:25.914Z,5.20
2023-03-07T13:32:55.443Z,5.18
2023-03-07T13:35:28.388Z,5.17
2023-03-07T13:38:12.884Z,5.18
2023-03-07T13:40:45.119Z,5.17
2023-03-07T13:43:26.334Z,5.17
2023-03-07T13:45:58.613Z,5.19
2023-03-07T13:48:28.290Z,5.22
2023-03-07T13:50:54.814Z,5.20
2023-03-07T13:53:27.496Z,5.15
2023-03-07T13:56:14.512Z,5.12
2023-03-07T13:59:00.991Z,5.08
2023-03-07T14:01:32.459Z,5.04
2023-03-07T14:04:08.167Z,4.98
2023-03-07T14:06:40.404Z,4.91
2023-03-07T14:09:10.408Z,4.88
2023-03-07T14:15:08.488Z,4.88
2023-03-07T14:17:54.875Z,4.84
2023-03-07T14:20:36.234Z,4.82
2023-03-07T14:23:30.215Z,4.80
2023-03-07T14:26:18.665Z,4.79
2023-03-07T14:28:49.043Z,4.76
2023-03-07T14:31:25.717Z,4.76
2023-03-07T14:33:54.014Z,4.72
2023-03-07T14:36:28.144Z,4.69
2023-03-07T14:38:57.892Z,4.67
2023-03-07T14:41:50.460Z,4.64
2023-03-07T14:44:46.404Z,4.62
2023-03-07T14:47:45.297Z,4.60
2023-03-07T14:50:13.588Z,4.60
2023-03-07T14:52:41.929Z,4.59
2023-03-07T14:55:16.681Z,4.59
2023-03-07T14:57:46.318Z,4.57
2023-03-07T15:00:15.007Z,4.52
2023-03-07T15:02:54.257Z,4.48
2023-03-07T15:05:36.614Z,4.42
2023-03-07T15:08:17.633Z,4.37
2023-03-07T15:10:46.695Z,4.32
2023-03-07T15:13:23.773Z,4.29
2023-03-07T15:15:57.328Z,4.28
2023-03-07T15:18:37.969Z,4.25
2023-03-07T15:21:08.914Z,4.21
2023-03-07T15:23:37.234Z,4.15
2023-03-07T15:26:07.009Z,4.10
2023-03-07T15:28:36.925Z,4.04
2023-03-07T15:31:05.339Z,3.98
2023-03-07T15:33:33.678Z,3.93
2023-03-07T15:36:07.140Z,3.86
2023-03-07T15:38:35.355Z,3.81
2023-03-07T15:41:31.753Z,3.77
2023-03-07T15:44:04.260Z,3.72
2023-03-07T15:46:32.844Z,3.67
2023-03-07T15:49:02.695Z,3.62
2023-03-07T15:51:36.094Z,3.58
2023-03-07T15:54:20.209Z,3.54
2023-03-07T15:56:56.182Z,3.49
2023-03-07T15:59:36.446Z,3.45
2023-03-07T16:02:33.095Z,3.39
2023-03-07T16:05:06.803Z,3.31
2023-03-07T16:07:38.715Z,3.23
2023-03-07T16:10:08.216Z,3.16
2023-03-07T16:12:37.479Z,3.09
2023-03-07T16:15:06.917Z,3.01
2023-03-07T16:17:37.955Z,2.93
2023-03-07T16:20:17.769Z,2.86
2023-03-07T16:22:49.803Z,2.79
2023-03-07T16:25:17.864Z,2.84
2023-03-07T16:27:51.917Z,2.90
2023-03-07T16:30:22.993Z,2.86
2023-03-07T16:32:51.253Z,2.82
2023-03-07T16:35:24.601Z,2.79
2023-03-07T16:37:53.694Z,2.75
2023-03-07T16:40:23.044Z,2.70
2023-03-07T16:43:29.763Z,2.64
2023-03-07T16:45:59.263Z,2.55
2023-03-07T16:48:27.339Z,2.47
2023-03-07T16:50:55.310Z,2.39
2023-03-07T16:53:24.360Z,2.32
2023-03-07T16:55:52.670Z,2.21
2023-03-07T16:58:26.324Z,2.11
2023-03-07T17:00:54.449Z,2.14
2023-03-07T17:03:22.397Z,2.19
2023-03-07T17:05:50.403Z,2.13
2023-03-07T17:08:18.710Z,2.05
2023-03-07T17:10:46.886Z,1.96
2023-03-07T17:13:17.048Z,1.89
2023-03-07T17:15:47.179Z,1.88
2023-03-07T17:18:16.847Z,1.90
2023-03-07T17:20:46.352Z,1.90
2023-03-07T17:23:15.059Z,1.91
2023-03-07T17:25:43.467Z,1.92
2023-03-07T17:28:13.189Z,1.94
2023-03-07T17:30:45.139Z,1.96
2023-03-07T17:33:15.254Z,1.98
2023-03-07T17:35:43.968Z,1.98
2023-03-07T17:38:11.898Z,2.00
2023-03-07T17:40:40.067Z,2.12
2023-03-07T17:43:12.747Z,2.24
2023-03-07T17:45:51.231Z,2.26
2023-03-07T17:48:20.972Z,2.29
2023-03-07T17:50:49.061Z,2.32
2023-03-07T17:53:17.922Z,2.35
2023-03-07T17:55:45.978Z,2.38
2023-03-07T17:58:14.946Z,2.40
2023-03-07T18:00:42.887Z,2.41
2023-03-07T18:03:11.048Z,2.42
2023-03-07T18:05:40.243Z,2.42
2023-03-07T18:08:08.933Z,2.43
2023-03-07T18:10:37.357Z,2.43
2023-03-07T18:13:05.695Z,2.43
2023-03-07T18:15:35.350Z,2.43
2023-03-07T18:18:04.068Z,2.44
2023-03-07T18:20:33.388Z,2.44
2023-03-07T18:23:02.034Z,2.44
2023-03-07T18:25:30.188Z,2.44
2023-03-07T18:28:01.552Z,2.43
2023-03-07T18:30:31.425Z,2.42
2023-03-07T18:33:02.286Z,2.40
2023-03-07T18:35:30.811Z,2.38
2023-03-07T18:37:58.707Z,2.36
2023-03-07T18:40:26.717Z,2.36
2023-03-07T18:42:59.429Z,2.35
2023-03-07T18:45:28.568Z,2.35
2023-03-07T18:47:58.182Z,2.36
2023-03-07T18:50:27.004Z,2.37
2023-03-07T18:52:58.354Z,2.39
2023-03-07T18:55:27.270Z,2.51
2023-03-07T18:57:56.009Z,2.66
2023-03-07T19:00:24.081Z,2.70
2023-03-07T19:02:52.019Z,2.72
2023-03-07T19:05:20.485Z,2.75
2023-03-07T19:07:48.919Z,2.79
2023-03-07T19:10:17.311Z,2.81
2023-03-07T19:12:46.191Z,2.81
2023-03-07T19:15:14.772Z,2.81
2023-03-07T19:17:43.959Z,2.78
2023-03-07T19:20:13.067Z,2.74
2023-03-07T19:22:42.221Z,2.71
2023-03-07T19:25:10.383Z,2.66
2023-03-07T19:27:39.509Z,2.61
2023-03-07T19:30:11.469Z,2.57
2023-03-07T19:32:43.349Z,2.53
2023-03-07T19:35:11.910Z,2.49
2023-03-07T19:37:43.682Z,2.46
2023-03-07T19:40:13.016Z,2.40
2023-03-07T19:42:41.868Z,2.36
2023-03-07T19:45:11.198Z,2.31
2023-03-07T19:47:43.365Z,2.25
2023-03-07T19:50:14.655Z,2.21
2023-03-07T19:52:45.025Z,2.27
2023-03-07T19:55:13.844Z,2.34
2023-03-07T19:57:43.077Z,2.31
2023-03-07T20:00:12.455Z,2.27
2023-03-07T20:02:40.870Z,2.25
2023-03-07T20:05:09.658Z,2.23
2023-03-07T20:07:42.914Z,2.19
2023-03-07T20:10:11.901Z,2.14
2023-03-07T20:12:40.463Z,2.09
2023-03-07T20:15:09.289Z,2.02
2023-03-07T20:17:41.735Z,1.97
2023-03-07T20:20:12.110Z,1.93
2023-03-07T20:22:42.530Z,1.87
2023-03-07T20:25:11.366Z,1.91
2023-03-07T20:27:41.288Z,2.00
2023-03-07T20:30:10.500Z,1.98
2023-03-07T20:32:39.293Z,1.94
2023-03-07T20:35:07.864Z,1.91
2023-03-07T20:37:36.860Z,1.88
2023-03-07T20:40:08.837Z,1.84
2023-03-07T20:42:37.419Z,1.80
2023-03-07T20:45:06.011Z,1.75
2023-03-07T20:47:38.281Z,1.70
2023-03-07T20:50:06.726Z,1.75
2023-03-07T20:52:38.105Z,1.86
2023-03-07T20:55:07.412Z,1.86
2023-03-07T20:57:35.729Z,1.84
2023-03-07T21:00:08.425Z,1.82
2023-03-07T21:02:36.686Z,1.79
2023-03-07T21:05:05.193Z,1.75
2023-03-07T21:07:33.441Z,1.71
2023-03-07T21:10:01.685Z,1.73
2023-03-07T21:12:31.572Z,1.87
2023-03-07T21:15:01.223Z,1.89
2023-03-07T21:17:29.428Z,1.87
2023-03-07T21:19:57.447Z,1.86
2023-03-07T21:22:25.643Z,1.84
2023-03-07T21:24:53.599Z,1.82
2023-03-07T21:27:21.882Z,1.80
2023-03-07T21:29:49.963Z,1.77
2023-03-07T21:32:26.561Z,1.86
2023-03-07T21:34:54.923Z,1.93
2023-03-07T21:37:27.586Z,1.91
2023-03-07T21:39:56.606Z,1.88
2023-03-07T21:42:24.560Z,1.86
2023-03-07T21:44:54.804Z,1.85
2023-03-07T21:47:23.605Z,1.82
2023-03-07T21:49:53.005Z,1.78
2023-03-07T21:52:21.071Z,1.76
2023-03-07T21:54:49.089Z,1.85
2023-03-07T21:57:17.153Z,1.90
2023-03-07T21:59:45.625Z,1.88
2023-03-07T22:02:14.508Z,1.84
2023-03-07T22:04:43.434Z,1.81
2023-03-07T22:07:14.262Z,1.77
2023-03-07T22:09:42.261Z,1.72
2023-03-07T22:12:10.331Z,1.75
2023-03-07T22:14:40.517Z,1.85
2023-03-07T22:17:12.237Z,1.84
2023-03-07T22:19:40.423Z,1.79
2023-03-07T22:22:08.340Z,1.73
2023-03-07T22:24:36.499Z,1.70
2023-03-07T22:27:06.021Z,1.65
2023-03-07T22:29:34.177Z,1.61
2023-03-07T22:32:02.263Z,1.70
2023-03-07T22:34:30.420Z,1.75
2023-03-07T22:37:00.654Z,1.70
2023-03-07T22:39:28.896Z,1.66
2023-03-07T22:41:56.983Z,1.60
2023-03-07T22:44:25.114Z,1.55
2023-03-07T22:46:56.786Z,1.52
2023-03-07T22:49:26.749Z,1.61
2023-03-07T22:51:55.405Z,1.66
2023-03-07T22:54:23.590Z,1.61
2023-03-07T22:56:51.633Z,1.55
2023-03-07T22:59:19.646Z,1.51
2023-03-07T23:01:47.809Z,1.47
2023-03-07T23:04:15.739Z,1.46
2023-03-07T23:06:44.869Z,1.56
2023-03-07T23:09:12.810Z,1.58
2023-03-07T23:11:46.863Z,1.53
2023-03-07T23:14:15.382Z,1.50
2023-03-07T23:16:43.423Z,1.46
2023-03-07T23:19:11.332Z,1.44
2023-03-07T23:21:40.383Z,1.53
2023-03-07T23:24:11.806Z,1.59
2023-03-07T23:26:40.389Z,1.57
2023-03-07T23:29:10.087Z,1.54
2023-03-07T23:31:39.910Z,1.51
2023-03-07T23:34:17.107Z,1.51
2023-03-07T23:36:48.736Z,1.61
2023-03-07T23:39:17.607Z,1.61
2023-03-07T23:41:46.516Z,1.57
2023-03-07T23:44:15.554Z,1.52
2023-03-07T23:46:43.896Z,1.50
2023-03-07T23:49:12.626Z,1.48
2023-03-07T23:51:40.879Z,1.56
2023-03-07T23:54:09.323Z,1.60
2023-03-07T23:56:37.910Z,1.57
2023-03-07T23:59:05.859Z,1.53
